createdAt,value
2019-02-19T00:00:57.881Z,8.00
2019-02-19T00:01:57.933Z,4.00
2019-02-19T00:02:57.831Z,4.00
2019-02-19T00:03:57.822Z,4.00
2019-02-19T00:04:57.811Z,8.00
2019-02-19T00:05:57.837Z,8.00
2019-02-19T00:06:57.789Z,4.00
2019-02-19T00:07:57.771Z,8.00
2019-02-19T00:08:57.764Z,8.00
2019-02-19T00:09:57.755Z,8.00
2019-02-19T00:10:57.747Z,8.00
2019-02-19T00:11:57.797Z,8.00
2019-02-19T00:12:57.721Z,4.00
2019-02-19T00:13:57.705Z,8.00
2019-02-19T00:14:57.702Z,4.00
2019-02-19T00:15:57.691Z,8.00
2019-02-19T00:16:57.673Z,8.00
2019-02-19T00:17:57.699Z,8.00
2019-02-19T00:18:57.655Z,8.00
2019-02-19T00:19:57.643Z,4.00
2019-02-19T00:20:57.635Z,8.00
2019-02-19T00:21:57.621Z,8.00
2019-02-19T00:22:57.613Z,8.00
2019-02-19T00:23:57.624Z,8.00
2019-02-19T00:24:57.598Z,8.00
2019-02-19T00:25:57.576Z,8.00
2019-02-19T00:26:57.566Z,8.00
2019-02-19T00:27:57.559Z,8.00
2019-02-19T00:28:57.572Z,8.00
2019-02-19T00:29:57.577Z,8.00
2019-02-19T00:30:57.525Z,8.00
2019-02-19T00:31:57.511Z,8.00
2019-02-19T00:32:57.501Z,8.00
2019-02-19T00:33:57.516Z,4.00
2019-02-19T00:34:57.475Z,8.00
2019-02-19T00:35:57.498Z,8.00
2019-02-19T00:36:57.461Z,8.00
2019-02-19T00:37:57.445Z,8.00
2019-02-19T00:38:57.455Z,8.00
2019-02-19T00:39:57.427Z,8.00
2019-02-19T00:40:57.420Z,8.00
2019-02-19T00:41:57.405Z,8.00
2019-02-19T00:42:57.389Z,8.00
2019-02-19T00:43:57.404Z,8.00
2019-02-19T00:44:57.371Z,8.00
2019-02-19T00:45:57.391Z,4.00
2019-02-19T00:46:57.348Z,8.00
2019-02-19T00:47:57.336Z,8.00
2019-02-19T00:48:57.333Z,8.00
2019-02-19T00:49:57.312Z,8.00
2019-02-19T00:50:57.324Z,8.00
2019-02-19T00:51:57.288Z,8.00
2019-02-19T00:52:57.279Z,4.00
2019-02-19T00:53:57.309Z,8.00
2019-02-19T00:54:57.257Z,8.00
2019-02-19T00:55:57.245Z,8.00
2019-02-19T00:56:57.231Z,8.00
2019-02-19T00:57:57.253Z,4.00
2019-02-19T00:58:57.251Z,8.00
2019-02-19T00:59:57.201Z,8.00
2019-02-19T01:00:57.193Z,8.00
2019-02-19T01:01:57.176Z,8.00
2019-02-19T01:02:57.171Z,8.00
2019-02-19T01:03:57.195Z,8.00
2019-02-19T01:04:57.148Z,4.00
2019-02-19T01:05:57.136Z,8.00
2019-02-19T01:06:57.123Z,8.00
2019-02-19T01:07:57.133Z,8.00
2019-02-19T01:08:57.127Z,8.00
2019-02-19T01:09:57.091Z,8.00
2019-02-19T01:10:57.079Z,8.00
2019-02-19T01:11:57.073Z,8.00
2019-02-19T01:12:57.055Z,4.00
2019-02-19T01:13:57.076Z,4.00
2019-02-19T01:14:57.036Z,8.00
2019-02-19T01:15:57.030Z,8.00
2019-02-19T01:16:57.021Z,8.00
2019-02-19T01:17:59.970Z,8.00
2019-02-19T01:18:57.023Z,8.00
2019-02-19T01:19:56.982Z,8.00
2019-02-19T01:20:56.975Z,8.00
2019-02-19T01:21:56.961Z,8.00
2019-02-19T01:22:56.987Z,8.00
2019-02-19T01:23:56.938Z,8.00
2019-02-19T01:24:59.467Z,8.00
2019-02-19T01:25:56.911Z,8.00
2019-02-19T01:26:56.923Z,8.00
2019-02-19T01:27:56.931Z,8.00
2019-02-19T01:28:58.306Z,8.00
2019-02-19T01:29:56.867Z,8.00
2019-02-19T01:30:56.883Z,8.00
2019-02-19T01:31:56.858Z,8.00
2019-02-19T01:32:56.837Z,8.00
2019-02-19T01:33:56.855Z,8.00
2019-02-19T01:34:56.815Z,8.00
2019-02-19T01:35:56.801Z,8.00
2019-02-19T01:36:56.791Z,8.00
2019-02-19T01:37:56.783Z,8.00
2019-02-19T01:38:56.792Z,8.00
2019-02-19T01:39:56.767Z,8.00
2019-02-19T01:40:56.757Z,8.00
2019-02-19T01:41:56.736Z,8.00
2019-02-19T01:42:56.737Z,8.00
2019-02-19T01:43:56.745Z,4.00
2019-02-19T01:44:56.709Z,8.00
2019-02-19T01:45:56.697Z,8.00
2019-02-19T01:46:56.686Z,8.00
2019-02-19T01:47:56.702Z,8.00
2019-02-19T01:48:56.691Z,8.00
2019-02-19T01:49:56.652Z,8.00
2019-02-19T01:50:56.644Z,8.00
2019-02-19T01:51:56.625Z,8.00
2019-02-19T01:52:56.623Z,8.00
2019-02-19T01:53:56.640Z,8.00
2019-02-19T01:54:56.590Z,8.00
2019-02-19T01:55:56.592Z,8.00
2019-02-19T01:56:56.574Z,8.00
2019-02-19T01:57:56.559Z,8.00
2019-02-19T01:58:57.461Z,8.00
2019-02-19T01:59:56.536Z,8.00
2019-02-19T02:00:56.543Z,8.00
2019-02-19T02:01:56.515Z,8.00
2019-02-19T02:02:56.512Z,8.00
2019-02-19T02:03:55.522Z,8.00
2019-02-19T02:04:56.487Z,8.00
2019-02-19T02:05:56.474Z,8.00
2019-02-19T02:06:56.463Z,8.00
2019-02-19T02:07:56.451Z,8.00
2019-02-19T02:08:56.462Z,8.00
2019-02-19T02:09:56.433Z,8.00
2019-02-19T02:10:56.424Z,8.00
2019-02-19T02:11:56.404Z,8.00
2019-02-19T02:12:56.397Z,8.00
2019-02-19T02:13:56.387Z,4.00
2019-02-19T02:14:56.991Z,8.00
2019-02-19T02:15:56.953Z,8.00
2019-02-19T02:16:56.358Z,28.00
2019-02-19T02:17:56.338Z,44.00
2019-02-19T02:18:56.330Z,44.00
2019-02-19T02:19:56.316Z,48.00
2019-02-19T02:20:56.315Z,44.00
2019-02-19T02:21:56.299Z,40.00
2019-02-19T02:22:56.294Z,52.00
2019-02-19T02:23:56.280Z,52.00
2019-02-19T02:24:56.261Z,52.00
2019-02-19T02:25:56.257Z,52.00
2019-02-19T02:26:56.238Z,44.00
2019-02-19T02:27:56.238Z,44.00
2019-02-19T02:28:56.228Z,40.00
2019-02-19T02:29:56.207Z,44.00
2019-02-19T02:30:56.194Z,8.00
2019-02-19T02:31:56.210Z,8.00
2019-02-19T02:32:56.178Z,8.00
2019-02-19T02:33:56.171Z,8.00
2019-02-19T02:34:56.155Z,8.00
2019-02-19T02:35:56.142Z,8.00
2019-02-19T02:36:56.166Z,8.00
2019-02-19T02:37:56.122Z,8.00
2019-02-19T02:38:56.108Z,8.00
2019-02-19T02:39:56.098Z,8.00
2019-02-19T02:40:56.136Z,8.00
2019-02-19T02:41:56.095Z,8.00
2019-02-19T02:42:56.061Z,4.00
2019-02-19T02:43:56.050Z,8.00
2019-02-19T02:44:56.048Z,8.00
2019-02-19T02:45:56.061Z,8.00
2019-02-19T02:46:56.023Z,8.00
2019-02-19T02:47:56.293Z,8.00
2019-02-19T02:48:56.012Z,8.00
2019-02-19T02:49:56.014Z,8.00
2019-02-19T02:50:56.045Z,8.00
2019-02-19T02:51:55.964Z,8.00
2019-02-19T02:52:55.953Z,8.00
2019-02-19T02:53:55.970Z,8.00
2019-02-19T02:54:58.432Z,8.00
2019-02-19T02:55:55.920Z,8.00
2019-02-19T02:56:55.922Z,8.00
2019-02-19T02:57:55.911Z,8.00
2019-02-19T02:58:55.892Z,8.00
2019-02-19T02:59:55.888Z,8.00
2019-02-19T03:00:55.869Z,8.00
2019-02-19T03:01:55.854Z,8.00
2019-02-19T03:02:55.870Z,8.00
2019-02-19T03:03:55.837Z,8.00
2019-02-19T03:04:55.821Z,8.00
2019-02-19T03:05:55.807Z,8.00
2019-02-19T03:06:55.798Z,8.00
2019-02-19T03:07:55.786Z,8.00
2019-02-19T03:08:58.437Z,8.00
2019-02-19T03:09:55.765Z,8.00
2019-02-19T03:10:55.758Z,8.00
2019-02-19T03:11:55.748Z,8.00
2019-02-19T03:12:55.732Z,8.00
2019-02-19T03:13:55.726Z,8.00
2019-02-19T03:14:55.739Z,8.00
2019-02-19T03:16:02.246Z,8.00
2019-02-19T03:16:55.696Z,8.00
2019-02-19T03:18:57.433Z,8.00
2019-02-19T03:19:55.656Z,8.00
2019-02-19T03:20:55.672Z,8.00
2019-02-19T03:21:55.633Z,8.00
2019-02-19T03:22:55.624Z,8.00
2019-02-19T03:23:55.611Z,8.00
2019-02-19T03:24:55.669Z,8.00
2019-02-19T03:25:55.599Z,8.00
2019-02-19T03:26:55.627Z,8.00
2019-02-19T03:27:55.573Z,8.00
2019-02-19T03:28:55.579Z,8.00
2019-02-19T03:29:55.550Z,8.00
2019-02-19T03:30:55.540Z,8.00
2019-02-19T03:31:55.546Z,8.00
2019-02-19T03:32:55.526Z,4.00
2019-02-19T03:33:55.550Z,8.00
2019-02-19T03:34:55.498Z,4.00
2019-02-19T03:35:55.478Z,8.00
2019-02-19T03:36:55.478Z,8.00
2019-02-19T03:37:55.457Z,4.00
2019-02-19T03:38:55.454Z,8.00
2019-02-19T03:39:55.465Z,8.00
2019-02-19T03:40:55.426Z,8.00
2019-02-19T03:41:57.927Z,8.00
2019-02-19T03:42:55.401Z,8.00
2019-02-19T03:43:55.403Z,8.00
2019-02-19T03:44:55.409Z,8.00
2019-02-19T03:45:55.369Z,8.00
2019-02-19T03:46:55.356Z,8.00
2019-02-19T03:47:55.346Z,8.00
2019-02-19T03:48:55.339Z,8.00
2019-02-19T03:49:55.356Z,8.00
2019-02-19T03:50:55.318Z,8.00
2019-02-19T03:51:55.305Z,8.00
2019-02-19T03:52:55.296Z,8.00
2019-02-19T03:54:54.266Z,8.00
2019-02-19T03:55:55.290Z,8.00
2019-02-19T03:56:55.247Z,8.00
2019-02-19T03:57:55.245Z,8.00
2019-02-19T03:58:55.228Z,8.00
2019-02-19T03:59:55.217Z,8.00
2019-02-19T04:00:55.209Z,8.00
2019-02-19T04:01:55.221Z,8.00
2019-02-19T04:02:55.186Z,8.00
2019-02-19T04:03:55.177Z,8.00
2019-02-19T04:04:55.168Z,8.00
2019-02-19T04:05:55.152Z,8.00
2019-02-19T04:06:55.137Z,8.00
2019-02-19T04:07:55.154Z,8.00
2019-02-19T04:08:55.124Z,8.00
2019-02-19T04:09:55.106Z,8.00
2019-02-19T04:10:55.098Z,8.00
2019-02-19T04:11:55.136Z,8.00
2019-02-19T04:12:55.070Z,8.00
2019-02-19T04:13:55.065Z,8.00
2019-02-19T04:14:55.053Z,8.00
2019-02-19T04:16:54.914Z,8.00
2019-02-19T04:17:55.051Z,8.00
2019-02-19T04:18:55.009Z,8.00
2019-02-19T04:19:54.999Z,8.00
2019-02-19T04:20:54.985Z,8.00
2019-02-19T04:21:54.968Z,8.00
2019-02-19T04:22:54.966Z,8.00
2019-02-19T04:23:54.981Z,8.00
2019-02-19T04:24:54.945Z,8.00
2019-02-19T04:25:54.928Z,8.00
2019-02-19T04:26:54.923Z,8.00
2019-02-19T04:27:54.912Z,8.00
2019-02-19T04:28:54.899Z,8.00
2019-02-19T04:29:54.913Z,8.00
2019-02-19T04:30:54.874Z,8.00
2019-02-19T04:31:54.866Z,8.00
2019-02-19T04:33:53.839Z,8.00
2019-02-19T04:34:54.830Z,8.00
2019-02-19T04:35:54.844Z,8.00
2019-02-19T04:36:54.812Z,8.00
2019-02-19T04:37:54.800Z,8.00
2019-02-19T04:38:54.790Z,8.00
2019-02-19T04:39:54.812Z,8.00
2019-02-19T04:40:54.773Z,8.00
2019-02-19T04:41:54.766Z,8.00
2019-02-19T04:42:54.745Z,8.00
2019-02-19T04:43:55.399Z,8.00
2019-02-19T04:44:54.756Z,8.00
2019-02-19T04:45:54.714Z,8.00
2019-02-19T04:46:54.708Z,8.00
2019-02-19T04:47:54.692Z,4.00
2019-02-19T04:48:54.681Z,8.00
2019-02-19T04:49:54.714Z,8.00
2019-02-19T04:50:54.661Z,8.00
2019-02-19T04:51:54.644Z,8.00
2019-02-19T04:52:54.636Z,8.00
2019-02-19T04:53:54.624Z,8.00
2019-02-19T04:54:54.616Z,4.00
2019-02-19T04:55:54.628Z,8.00
2019-02-19T04:56:54.612Z,4.00
2019-02-19T04:57:54.579Z,4.00
2019-02-19T04:58:54.566Z,4.00
2019-02-19T04:59:54.552Z,4.00
2019-02-19T05:00:54.554Z,4.00
2019-02-19T05:01:54.534Z,8.00
2019-02-19T05:02:54.550Z,4.00
2019-02-19T05:03:54.509Z,4.00
2019-02-19T05:04:54.497Z,8.00
2019-02-19T05:05:54.494Z,4.00
2019-02-19T05:06:54.473Z,4.00
2019-02-19T05:07:54.466Z,4.00
2019-02-19T05:08:57.395Z,8.00
2019-02-19T05:09:54.447Z,4.00
2019-02-19T05:10:54.437Z,4.00
2019-02-19T05:11:54.429Z,4.00
2019-02-19T05:12:54.413Z,4.00
2019-02-19T05:13:54.403Z,4.00
2019-02-19T05:14:54.396Z,4.00
2019-02-19T05:15:54.434Z,4.00
2019-02-19T05:16:54.371Z,4.00
2019-02-19T05:17:54.358Z,4.00
2019-02-19T05:18:54.348Z,4.00
2019-02-19T05:19:56.900Z,8.00
2019-02-19T05:20:54.349Z,8.00
2019-02-19T05:21:54.319Z,8.00
2019-02-19T05:23:53.289Z,8.00
2019-02-19T05:24:54.291Z,4.00
2019-02-19T05:25:54.276Z,8.00
2019-02-19T05:26:54.262Z,8.00
2019-02-19T05:27:54.242Z,8.00
2019-02-19T05:28:54.255Z,8.00
2019-02-19T05:29:54.884Z,8.00
2019-02-19T05:30:54.254Z,8.00
2019-02-19T05:31:54.201Z,8.00
2019-02-19T05:32:54.196Z,8.00
2019-02-19T05:34:53.171Z,4.00
2019-02-19T05:35:54.198Z,4.00
2019-02-19T05:36:54.153Z,4.00
2019-02-19T05:37:54.137Z,4.00
2019-02-19T05:38:54.125Z,4.00
2019-02-19T05:39:54.117Z,4.00
2019-02-19T05:40:54.114Z,4.00
2019-02-19T05:41:54.119Z,4.00
2019-02-19T05:42:54.079Z,4.00
2019-02-19T05:43:54.073Z,8.00
2019-02-19T05:44:54.061Z,8.00
2019-02-19T05:45:54.047Z,4.00
2019-02-19T05:46:54.041Z,8.00
2019-02-19T05:47:54.059Z,8.00
2019-02-19T05:48:54.016Z,8.00
2019-02-19T05:49:54.005Z,8.00
2019-02-19T05:50:53.997Z,8.00
2019-02-19T05:51:53.981Z,12.00
2019-02-19T05:52:53.971Z,8.00
2019-02-19T05:53:54.874Z,12.00
2019-02-19T05:54:53.947Z,16.00
2019-02-19T05:55:53.937Z,16.00
2019-02-19T05:56:53.953Z,20.00
2019-02-19T05:57:53.919Z,20.00
2019-02-19T05:58:53.908Z,24.00
2019-02-19T05:59:53.900Z,32.00
2019-02-19T06:00:53.893Z,36.00
2019-02-19T06:01:53.896Z,40.00
2019-02-19T06:02:53.861Z,48.00
2019-02-19T06:03:53.851Z,56.00
2019-02-19T06:04:53.848Z,64.00
2019-02-19T06:05:53.832Z,72.00
2019-02-19T06:06:53.851Z,80.00
2019-02-19T06:07:53.809Z,92.00
2019-02-19T06:08:53.795Z,100.00
2019-02-19T06:09:53.797Z,112.00
2019-02-19T06:10:53.771Z,124.00
2019-02-19T06:11:53.792Z,136.00
2019-02-19T06:12:53.754Z,144.00
2019-02-19T06:13:53.739Z,156.00
2019-02-19T06:14:53.730Z,164.00
2019-02-19T06:15:53.720Z,176.00
2019-02-19T06:16:58.442Z,188.00
2019-02-19T06:17:53.727Z,200.00
2019-02-19T06:18:53.679Z,216.00
2019-02-19T06:20:52.668Z,244.00
2019-02-19T06:21:53.653Z,260.00
2019-02-19T06:22:53.675Z,280.00
2019-02-19T06:23:53.628Z,296.00
2019-02-19T06:24:53.624Z,316.00
2019-02-19T06:25:53.611Z,336.00
2019-02-19T06:26:53.601Z,356.00
2019-02-19T06:27:53.584Z,376.00
2019-02-19T06:28:54.368Z,396.00
2019-02-19T06:29:53.575Z,420.00
2019-02-19T06:30:53.558Z,436.00
2019-02-19T06:31:53.582Z,456.00
2019-02-19T06:32:53.533Z,472.00
2019-02-19T06:33:53.523Z,488.00
2019-02-19T06:34:53.513Z,496.00
2019-02-19T06:35:53.505Z,504.00
2019-02-19T06:36:53.493Z,516.00
2019-02-19T06:38:52.462Z,540.00
2019-02-19T06:39:53.460Z,556.00
2019-02-19T06:40:53.453Z,572.00
2019-02-19T06:41:53.444Z,584.00
2019-02-19T06:42:53.453Z,604.00
2019-02-19T06:43:53.412Z,624.00
2019-02-19T06:44:53.407Z,640.00
2019-02-19T06:45:53.389Z,660.00
2019-02-19T06:46:53.379Z,676.00
2019-02-19T06:47:53.398Z,700.00
2019-02-19T06:48:55.865Z,724.00
2019-02-19T06:49:53.356Z,748.00
2019-02-19T06:50:53.341Z,760.00
2019-02-19T06:51:53.328Z,772.00
2019-02-19T06:52:53.335Z,780.00
2019-02-19T06:53:53.301Z,788.00
2019-02-19T06:54:53.291Z,804.00
2019-02-19T06:55:53.277Z,820.00
2019-02-19T06:56:53.269Z,840.00
2019-02-19T06:57:53.303Z,864.00
2019-02-19T06:58:53.261Z,892.00
2019-02-19T06:59:53.233Z,908.00
2019-02-19T07:00:53.226Z,944.00
2019-02-19T07:01:53.217Z,972.00
2019-02-19T07:02:53.859Z,1000.00
2019-02-19T07:03:53.225Z,1016.00
2019-02-19T07:04:53.196Z,1032.00
2019-02-19T07:05:53.167Z,1048.00
2019-02-19T07:06:53.155Z,1056.00
2019-02-19T07:07:53.147Z,1060.00
2019-02-19T07:08:53.134Z,1068.00
2019-02-19T07:09:53.251Z,1068.00
2019-02-19T07:10:53.123Z,1064.00
2019-02-19T07:11:55.853Z,1060.00
2019-02-19T07:12:53.095Z,1056.00
2019-02-19T07:13:53.085Z,1052.00
2019-02-19T07:14:53.073Z,1056.00
2019-02-19T07:15:53.089Z,1064.00
2019-02-19T07:16:53.048Z,1076.00
2019-02-19T07:17:53.179Z,1092.00
2019-02-19T07:18:55.851Z,1108.00
2019-02-19T07:19:53.015Z,1112.00
2019-02-19T07:20:53.006Z,1088.00
2019-02-19T07:21:52.997Z,1068.00
2019-02-19T07:22:52.983Z,1048.00
2019-02-19T07:23:53.004Z,1024.00
2019-02-19T07:24:52.980Z,1004.00
2019-02-19T07:25:52.946Z,984.00
2019-02-19T07:26:52.937Z,960.00
2019-02-19T07:27:52.934Z,928.00
2019-02-19T07:28:52.927Z,924.00
2019-02-19T07:29:52.933Z,936.00
2019-02-19T07:30:52.898Z,944.00
2019-02-19T07:31:52.890Z,968.00
2019-02-19T07:32:52.881Z,980.00
2019-02-19T07:33:52.857Z,1000.00
2019-02-19T07:34:52.858Z,1036.00
2019-02-19T07:35:52.924Z,1068.00
2019-02-19T07:36:52.830Z,1100.00
2019-02-19T07:37:52.829Z,1128.00
2019-02-19T07:38:52.805Z,1144.00
2019-02-19T07:39:52.794Z,1156.00
2019-02-19T07:40:52.793Z,1164.00
2019-02-19T07:41:52.801Z,1176.00
2019-02-19T07:43:51.759Z,1156.00
2019-02-19T07:44:52.765Z,1144.00
2019-02-19T07:45:52.736Z,1152.00
2019-02-19T07:46:55.353Z,1156.00
2019-02-19T07:47:52.709Z,1156.00
2019-02-19T07:48:52.700Z,1160.00
2019-02-19T07:49:52.680Z,1160.00
2019-02-19T07:50:53.389Z,1168.00
2019-02-19T07:51:52.661Z,1172.00
2019-02-19T07:52:52.663Z,1188.00
2019-02-19T07:53:52.639Z,1220.00
2019-02-19T07:54:52.631Z,1220.00
2019-02-19T07:55:52.649Z,1244.00
2019-02-19T07:56:52.610Z,1264.00
2019-02-19T07:57:52.597Z,1264.00
2019-02-19T07:58:52.589Z,1272.00
2019-02-19T07:59:52.611Z,1284.00
2019-02-19T08:00:52.561Z,1308.00
2019-02-19T08:01:52.540Z,1324.00
2019-02-19T08:02:52.591Z,1348.00
2019-02-19T08:03:52.532Z,1380.00
2019-02-19T08:04:52.520Z,1404.00
2019-02-19T08:05:52.513Z,1428.00
2019-02-19T08:06:52.494Z,1456.00
2019-02-19T08:07:52.491Z,1468.00
2019-02-19T08:08:52.597Z,1488.00
2019-02-19T08:09:52.488Z,1476.00
2019-02-19T08:10:52.451Z,1484.00
2019-02-19T08:11:52.447Z,1468.00
2019-02-19T08:12:52.434Z,1464.00
2019-02-19T08:13:52.422Z,1436.00
2019-02-19T08:14:52.441Z,1444.00
2019-02-19T08:15:52.400Z,1404.00
2019-02-19T08:16:53.340Z,1400.00
2019-02-19T08:17:52.373Z,1416.00
2019-02-19T08:18:52.370Z,1412.00
2019-02-19T08:19:52.358Z,1396.00
2019-02-19T08:20:53.570Z,1412.00
2019-02-19T08:21:52.348Z,1416.00
2019-02-19T08:22:52.331Z,1408.00
2019-02-19T08:23:52.310Z,1372.00
2019-02-19T08:24:52.305Z,1420.00
2019-02-19T08:25:52.288Z,1420.00
2019-02-19T08:26:52.323Z,1444.00
2019-02-19T08:27:52.288Z,1468.00
2019-02-19T08:28:52.259Z,1436.00
2019-02-19T08:29:52.251Z,1448.00
2019-02-19T08:30:52.233Z,1588.00
2019-02-19T08:31:52.222Z,1620.00
2019-02-19T08:32:52.242Z,1620.00
2019-02-19T08:33:52.232Z,1660.00
2019-02-19T08:34:52.197Z,1656.00
2019-02-19T08:35:52.183Z,1704.00
2019-02-19T08:36:52.173Z,1732.00
2019-02-19T08:37:52.157Z,1736.00
2019-02-19T08:38:52.181Z,1736.00
2019-02-19T08:39:52.142Z,1728.00
2019-02-19T08:40:52.144Z,1676.00
2019-02-19T08:41:52.108Z,1700.00
2019-02-19T08:42:52.105Z,1700.00
2019-02-19T08:43:52.087Z,1744.00
2019-02-19T08:44:52.114Z,1828.00
2019-02-19T08:45:52.071Z,1860.00
2019-02-19T08:46:52.067Z,1936.00
2019-02-19T08:47:52.090Z,1980.00
2019-02-19T08:48:52.823Z,2008.00
2019-02-19T08:49:52.827Z,2000.00
2019-02-19T08:50:52.014Z,1996.00
2019-02-19T08:51:56.295Z,2092.00
2019-02-19T08:52:52.009Z,2100.00
2019-02-19T08:53:52.067Z,2176.00
2019-02-19T08:54:51.971Z,2188.00
2019-02-19T08:55:51.961Z,2200.00
2019-02-19T08:56:51.955Z,2256.00
2019-02-19T08:57:51.944Z,2260.00
2019-02-19T08:58:51.965Z,2260.00
2019-02-19T08:59:51.915Z,2244.00
2019-02-19T09:00:51.909Z,2328.00
2019-02-19T09:01:51.897Z,2396.00
2019-02-19T09:02:51.887Z,2328.00
2019-02-19T09:03:51.879Z,2452.00
2019-02-19T09:04:51.887Z,2436.00
2019-02-19T09:05:51.851Z,2384.00
2019-02-19T09:06:51.833Z,2460.00
2019-02-19T09:07:51.825Z,2428.00
2019-02-19T09:08:51.826Z,2464.00
2019-02-19T09:09:51.867Z,2448.00
2019-02-19T09:10:51.799Z,2380.00
2019-02-19T09:11:51.803Z,2416.00
2019-02-19T09:12:51.784Z,2428.00
2019-02-19T09:13:51.757Z,2460.00
2019-02-19T09:14:51.758Z,2448.00
2019-02-19T09:15:51.767Z,2452.00
2019-02-19T09:16:51.727Z,2464.00
2019-02-19T09:17:52.392Z,2436.00
2019-02-19T09:18:51.703Z,2444.00
2019-02-19T09:19:52.330Z,2464.00
2019-02-19T09:20:51.729Z,2472.00
2019-02-19T09:21:51.670Z,2460.00
2019-02-19T09:22:51.664Z,2392.00
2019-02-19T09:23:51.665Z,2412.00
2019-02-19T09:24:51.643Z,2348.00
2019-02-19T09:25:51.628Z,2392.00
2019-02-19T09:26:51.651Z,2420.00
2019-02-19T09:27:51.604Z,2420.00
2019-02-19T09:28:51.599Z,2488.00
2019-02-19T09:29:51.581Z,2536.00
2019-02-19T09:30:51.606Z,2488.00
2019-02-19T09:31:51.560Z,2504.00
2019-02-19T09:32:51.550Z,2712.00
2019-02-19T09:33:51.543Z,2648.00
2019-02-19T09:34:52.723Z,2636.00
2019-02-19T09:35:51.682Z,2748.00
2019-02-19T09:36:51.512Z,3180.00
2019-02-19T09:37:51.504Z,3520.00
2019-02-19T09:38:51.482Z,3848.00
2019-02-19T09:39:51.470Z,3800.00
2019-02-19T09:40:51.456Z,3556.00
2019-02-19T09:41:51.525Z,3728.00
2019-02-19T09:42:51.436Z,3720.00
2019-02-19T09:43:51.425Z,3612.00
2019-02-19T09:44:51.406Z,3740.00
2019-02-19T09:45:51.410Z,3816.00
2019-02-19T09:46:51.415Z,3840.00
2019-02-19T09:47:51.419Z,4280.00
2019-02-19T09:48:51.404Z,4484.00
2019-02-19T09:49:51.360Z,4220.00
2019-02-19T09:50:51.348Z,4192.00
2019-02-19T09:51:51.333Z,4084.00
2019-02-19T09:52:59.495Z,4132.00
2019-02-19T09:53:51.340Z,4312.00
2019-02-19T09:54:51.351Z,4580.00
2019-02-19T09:55:51.297Z,4420.00
2019-02-19T09:56:51.281Z,4216.00
2019-02-19T09:57:51.270Z,4052.00
2019-02-19T09:58:51.258Z,3908.00
2019-02-19T09:59:51.250Z,3840.00
2019-02-19T10:00:51.284Z,3792.00
2019-02-19T10:01:51.228Z,3776.00
2019-02-19T10:02:51.218Z,3740.00
2019-02-19T10:03:51.213Z,3712.00
2019-02-19T10:04:53.802Z,3716.00
2019-02-19T10:05:51.179Z,3680.00
2019-02-19T10:06:51.198Z,3716.00
2019-02-19T10:07:51.166Z,3720.00
2019-02-19T10:08:51.142Z,3692.00
2019-02-19T10:09:51.138Z,3676.00
2019-02-19T10:10:51.127Z,3644.00
2019-02-19T10:11:51.116Z,3724.00
2019-02-19T10:12:51.137Z,3744.00
2019-02-19T10:13:51.129Z,3972.00
2019-02-19T10:14:51.126Z,4220.00
2019-02-19T10:15:51.066Z,4396.00
2019-02-19T10:16:51.057Z,4456.00
2019-02-19T10:17:51.043Z,4580.00
2019-02-19T10:18:51.043Z,4592.00
2019-02-19T10:19:51.020Z,4528.00
2019-02-19T10:20:51.807Z,4508.00
2019-02-19T10:21:51.038Z,4512.00
2019-02-19T10:22:50.997Z,4612.00
2019-02-19T10:23:59.306Z,4652.00
2019-02-19T10:24:52.410Z,4816.00
2019-02-19T10:25:50.957Z,5016.00
2019-02-19T10:26:50.959Z,4904.00
2019-02-19T10:27:50.928Z,5128.00
2019-02-19T10:28:50.935Z,5124.00
2019-02-19T10:29:50.946Z,5052.00
2019-02-19T10:30:50.918Z,5064.00
2019-02-19T10:31:50.902Z,5128.00
2019-02-19T10:32:50.883Z,5512.00
2019-02-19T10:33:50.870Z,6232.00
2019-02-19T10:34:50.989Z,6232.00
2019-02-19T10:35:50.855Z,5892.00
2019-02-19T10:36:50.846Z,5392.00
2019-02-19T10:37:51.830Z,5436.00
2019-02-19T10:38:50.817Z,5288.00
2019-02-19T10:39:50.800Z,5120.00
2019-02-19T10:40:50.844Z,5264.00
2019-02-19T10:41:50.793Z,5084.00
2019-02-19T10:42:50.777Z,5188.00
2019-02-19T10:43:50.783Z,5532.00
2019-02-19T10:44:50.746Z,5504.00
2019-02-19T10:45:50.736Z,5504.00
2019-02-19T10:46:50.731Z,5848.00
2019-02-19T10:47:50.727Z,6128.00
2019-02-19T10:48:50.706Z,6148.00
2019-02-19T10:49:50.886Z,6084.00
2019-02-19T10:50:50.688Z,5900.00
2019-02-19T10:51:50.688Z,5740.00
2019-02-19T10:52:51.787Z,5732.00
2019-02-19T10:53:50.657Z,5716.00
2019-02-19T10:54:51.211Z,5688.00
2019-02-19T10:55:50.747Z,5900.00
2019-02-19T10:56:50.624Z,5964.00
2019-02-19T10:57:50.616Z,6580.00
2019-02-19T10:58:50.611Z,6500.00
2019-02-19T10:59:50.584Z,5992.00
2019-02-19T11:00:50.574Z,5028.00
2019-02-19T11:01:50.609Z,4584.00
2019-02-19T11:02:50.565Z,4204.00
2019-02-19T11:03:50.546Z,4044.00
2019-02-19T11:04:50.528Z,4064.00
2019-02-19T11:05:50.515Z,4036.00
2019-02-19T11:06:50.516Z,3820.00
2019-02-19T11:07:50.529Z,3840.00
2019-02-19T11:08:50.484Z,3900.00
2019-02-19T11:09:50.475Z,3816.00
2019-02-19T11:10:50.936Z,3828.00
2019-02-19T11:11:53.287Z,4140.00
2019-02-19T11:12:50.469Z,4364.00
2019-02-19T11:13:50.434Z,4608.00
2019-02-19T11:14:50.426Z,4628.00
2019-02-19T11:15:50.415Z,4444.00
2019-02-19T11:16:50.451Z,4424.00
2019-02-19T11:17:50.386Z,3988.00
2019-02-19T11:18:50.420Z,4120.00
2019-02-19T11:19:50.377Z,4508.00
2019-02-19T11:20:50.355Z,4796.00
2019-02-19T11:21:50.347Z,4836.00
2019-02-19T11:22:50.364Z,4752.00
2019-02-19T11:23:50.325Z,4752.00
2019-02-19T11:24:50.792Z,4960.00
2019-02-19T11:25:50.302Z,4948.00
2019-02-19T11:26:50.315Z,5204.00
2019-02-19T11:27:50.275Z,5556.00
2019-02-19T11:28:50.265Z,5940.00
2019-02-19T11:29:50.256Z,6040.00
2019-02-19T11:30:50.249Z,5948.00
2019-02-19T11:31:50.281Z,5960.00
2019-02-19T11:32:50.223Z,5988.00
2019-02-19T11:33:50.212Z,5700.00
2019-02-19T11:34:50.205Z,5456.00
2019-02-19T11:35:50.201Z,5128.00
2019-02-19T11:36:50.210Z,4940.00
2019-02-19T11:37:50.173Z,5020.00
2019-02-19T11:38:50.181Z,5096.00
2019-02-19T11:39:50.145Z,4964.00
2019-02-19T11:40:50.133Z,4888.00
2019-02-19T11:41:50.161Z,4708.00
2019-02-19T11:42:50.119Z,4296.00
2019-02-19T11:43:50.106Z,3532.00
2019-02-19T11:44:50.118Z,2868.00
2019-02-19T11:45:50.082Z,2612.00
2019-02-19T11:46:50.067Z,2588.00
2019-02-19T11:47:50.088Z,2844.00
2019-02-19T11:48:50.059Z,3228.00
2019-02-19T11:49:50.037Z,3592.00
2019-02-19T11:50:50.065Z,3544.00
2019-02-19T11:51:50.782Z,3640.00
2019-02-19T11:52:50.009Z,3788.00
2019-02-19T11:53:49.997Z,3888.00
2019-02-19T11:56:48.964Z,2976.00
2019-02-19T11:57:49.953Z,2776.00
2019-02-19T11:58:49.959Z,2588.00
2019-02-19T11:59:49.926Z,2260.00
2019-02-19T12:00:49.922Z,2088.00
2019-02-19T12:01:49.914Z,1860.00
2019-02-19T12:02:49.904Z,2100.00
2019-02-19T12:03:49.907Z,2688.00
2019-02-19T12:04:49.865Z,3020.00
2019-02-19T12:05:49.867Z,2920.00
2019-02-19T12:06:49.851Z,2872.00
2019-02-19T12:07:50.800Z,2648.00
2019-02-19T12:08:49.873Z,1708.00
2019-02-19T12:09:49.842Z,1232.00
2019-02-19T12:10:49.809Z,1040.00
2019-02-19T12:11:49.797Z,900.00
2019-02-19T12:12:52.277Z,936.00
2019-02-19T12:13:51.338Z,908.00
2019-02-19T12:14:49.778Z,916.00
2019-02-19T12:15:49.749Z,940.00
2019-02-19T12:16:50.277Z,908.00
2019-02-19T12:17:49.729Z,904.00
2019-02-19T12:18:49.754Z,1004.00
2019-02-19T12:19:49.709Z,1172.00
2019-02-19T12:20:49.736Z,1316.00
2019-02-19T12:21:49.681Z,1100.00
2019-02-19T12:22:52.265Z,752.00
2019-02-19T12:23:49.666Z,636.00
2019-02-19T12:24:49.663Z,576.00
2019-02-19T12:25:49.642Z,532.00
2019-02-19T12:26:52.771Z,508.00
2019-02-19T12:27:49.637Z,532.00
2019-02-19T12:28:49.611Z,576.00
2019-02-19T12:29:49.598Z,636.00
2019-02-19T12:30:49.622Z,632.00
2019-02-19T12:31:49.571Z,632.00
2019-02-19T12:32:49.561Z,628.00
2019-02-19T12:33:49.555Z,568.00
2019-02-19T12:34:49.583Z,564.00
2019-02-19T12:35:49.527Z,708.00
2019-02-19T12:36:49.582Z,824.00
2019-02-19T12:37:49.511Z,836.00
2019-02-19T12:38:49.501Z,780.00
2019-02-19T12:39:49.517Z,792.00
2019-02-19T12:40:49.475Z,852.00
2019-02-19T12:41:49.458Z,812.00
2019-02-19T12:42:49.451Z,724.00
2019-02-19T12:43:51.005Z,640.00
2019-02-19T12:44:49.459Z,636.00
2019-02-19T12:46:48.401Z,680.00
2019-02-19T12:47:49.399Z,752.00
2019-02-19T12:48:54.687Z,864.00
2019-02-19T12:49:49.371Z,932.00
2019-02-19T12:50:50.269Z,952.00
2019-02-19T12:51:49.380Z,936.00
2019-02-19T12:52:49.333Z,824.00